Time;durP1;ratioP1;P1;durP2;ratioP2;P2;SDS_P1;SDS_P2;PMS_P1;PMS_P2;Temp;Humidity;BMP_temperature;BMP_pressure;BME280_temperature;BME280_humidity;BME280_pressure;Samples;Min_cycle;Max_cycle;Signal;HPM_P1;HPM_P2
2021/05/17 00:00:36;;;;;;;10.82;2.42;;;10.60;99.90;;;;;;5068368;28;20513;-67
2021/05/17 00:03:03;;;;;;;6.75;1.77;;;10.50;99.90;;;;;;5065116;28;20100;-73
2021/05/17 00:05:32;;;;;;;10.02;1.77;;;10.60;99.90;;;;;;5065281;28;20051;-70
2021/05/17 00:07:58;;;;;;;8.20;1.88;;;10.50;99.90;;;;;;5052166;28;20021;-67
2021/05/17 00:10:25;;;;;;;10.07;1.88;;;10.60;99.90;;;;;;5050965;28;20535;-67
2021/05/17 00:12:51;;;;;;;9.63;2.17;;;10.50;99.90;;;;;;5057736;28;20035;-67
2021/05/17 00:15:18;;;;;;;7.95;1.90;;;10.50;99.90;;;;;;5061210;28;20032;-66
2021/05/17 00:17:45;;;;;;;13.02;2.20;;;10.60;99.90;;;;;;5064690;28;20016;-67
2021/05/17 00:20:13;;;;;;;11.48;2.33;;;10.60;99.90;;;;;;5066805;28;20032;-66
2021/05/17 00:22:39;;;;;;;12.68;2.88;;;10.60;99.90;;;;;;5059360;28;20100;-67
2021/05/17 00:25:05;;;;;;;11.38;1.77;;;10.50;99.90;;;;;;5053923;28;20029;-67
2021/05/17 00:27:31;;;;;;;10.45;2.08;;;10.50;99.90;;;;;;5057348;28;20083;-67
2021/05/17 00:29:57;;;;;;;5.78;2.20;;;10.40;99.90;;;;;;5066176;28;20029;-67
2021/05/17 00:32:23;;;;;;;12.18;2.33;;;10.40;99.90;;;;;;5059749;28;20036;-67
2021/05/17 00:34:49;;;;;;;5.93;2.03;;;10.30;99.90;;;;;;5050110;28;20025;-67
2021/05/17 00:37:15;;;;;;;20.35;3.15;;;10.30;99.90;;;;;;5059700;28;20044;-68
2021/05/17 00:39:41;;;;;;;7.80;1.92;;;10.30;99.90;;;;;;5061972;28;20039;-66
2021/05/17 00:42:08;;;;;;;10.57;1.92;;;10.10;99.90;;;;;;5059407;28;20064;-67
2021/05/17 00:44:39;;;;;;;7.20;2.08;;;10.10;99.90;;;;;;5061007;28;20073;-67
2021/05/17 00:47:11;;;;;;;11.55;1.80;;;10.10;99.90;;;;;;5055304;28;20028;-67
2021/05/17 00:49:39;;;;;;;4.95;1.60;;;10.00;99.90;;;;;;5042628;28;20101;-66
2021/05/17 00:52:06;;;;;;;5.72;1.73;;;10.10;99.90;;;;;;5055287;28;20043;-67
2021/05/17 00:54:31;;;;;;;10.75;2.08;;;10.00;99.90;;;;;;5055189;28;20043;-68
2021/05/17 00:56:57;;;;;;;11.52;2.00;;;10.10;99.90;;;;;;5062576;28;20016;-67
2021/05/17 00:59:23;;;;;;;11.90;1.80;;;10.10;99.90;;;;;;5067298;28;20489;-67
2021/05/17 01:01:49;;;;;;;11.27;2.03;;;10.00;99.90;;;;;;5062352;28;20604;-67
2021/05/17 01:04:14;;;;;;;7.68;1.65;;;10.00;99.90;;;;;;5055795;28;20071;-67
2021/05/17 01:06:45;;;;;;;12.13;2.22;;;10.10;99.90;;;;;;5055273;28;20029;-67
2021/05/17 01:09:12;;;;;;;7.88;1.98;;;10.00;99.90;;;;;;5059793;28;20398;-67
2021/05/17 01:11:38;;;;;;;10.27;2.20;;;10.00;99.90;;;;;;5064808;28;20017;-67
2021/05/17 01:14:07;;;;;;;8.52;1.75;;;10.00;99.90;;;;;;5072356;28;20646;-67
2021/05/17 01:16:34;;;;;;;9.73;1.92;;;9.90;99.90;;;;;;5067344;28;20056;-67
2021/05/17 01:18:59;;;;;;;7.45;1.73;;;10.00;99.90;;;;;;5062226;28;20102;-67
2021/05/17 01:21:31;;;;;;;12.38;1.90;;;9.90;99.90;;;;;;5065332;28;20455;-71
2021/05/17 01:23:57;;;;;;;8.25;1.80;;;9.90;99.90;;;;;;5070332;28;20024;-67
2021/05/17 01:26:26;;;;;;;13.05;2.00;;;9.90;99.90;;;;;;5066699;28;20024;-66
2021/05/17 01:29:00;;;;;;;10.68;2.08;;;9.90;99.90;;;;;;5071147;28;20020;-72
2021/05/17 01:31:26;;;;;;;14.63;1.70;;;9.70;99.90;;;;;;5068934;28;20052;-81
2021/05/17 01:33:52;;;;;;;10.70;1.42;;;9.70;99.90;;;;;;5061840;28;20060;-80
2021/05/17 01:36:19;;;;;;;9.18;1.80;;;9.70;99.90;;;;;;5060917;28;20087;-79
2021/05/17 01:38:51;;;;;;;7.90;1.52;;;9.80;99.90;;;;;;5065040;28;20104;-80
2021/05/17 01:41:19;;;;;;;18.23;2.40;;;9.80;99.90;;;;;;5065316;28;20535;-80
2021/05/17 01:43:47;;;;;;;17.98;2.22;;;9.70;99.90;;;;;;5064203;28;20561;-73
2021/05/17 01:46:18;;;;;;;8.75;1.63;;;9.70;99.90;;;;;;5065338;28;20013;-69
2021/05/17 01:48:45;;;;;;;9.90;1.67;;;9.50;99.90;;;;;;5067763;28;20036;-75
2021/05/17 01:51:16;;;;;;;15.93;2.13;;;9.50;99.90;;;;;;5058096;28;20052;-69
2021/05/17 01:53:43;;;;;;;11.23;2.20;;;9.50;99.90;;;;;;5065149;28;20028;-72
2021/05/17 01:56:11;;;;;;;7.20;1.77;;;9.60;99.90;;;;;;5067416;28;20033;-74
2021/05/17 01:58:37;;;;;;;12.38;2.10;;;9.60;99.90;;;;;;5073604;28;20032;-79
2021/05/17 02:01:07;;;;;;;9.65;1.70;;;9.70;99.90;;;;;;5065431;28;20069;-75
2021/05/17 02:03:38;;;;;;;13.52;1.90;;;9.70;99.90;;;;;;5068177;28;20083;-78
2021/05/17 02:06:06;;;;;;;10.23;1.90;;;9.70;99.90;;;;;;5051955;28;20040;-66
2021/05/17 02:08:32;;;;;;;12.25;2.05;;;9.70;99.90;;;;;;5057693;28;20063;-66
2021/05/17 02:10:58;;;;;;;19.77;2.42;;;9.70;99.90;;;;;;5062789;28;20030;-78
2021/05/17 02:13:26;;;;;;;15.48;1.80;;;9.60;99.90;;;;;;5064987;28;20016;-82
2021/05/17 02:15:52;;;;;;;10.77;1.73;;;9.70;99.90;;;;;;5067007;28;20032;-69
2021/05/17 02:18:18;;;;;;;15.88;2.17;;;9.90;99.90;;;;;;5060787;28;20397;-69
2021/05/17 02:20:45;;;;;;;7.90;2.15;;;9.80;99.90;;;;;;5063663;28;20029;-67
2021/05/17 02:23:16;;;;;;;9.45;2.05;;;9.70;99.90;;;;;;5059896;28;20107;-77
2021/05/17 02:25:44;;;;;;;13.88;1.88;;;10.00;99.90;;;;;;5052048;28;20048;-72
2021/05/17 02:28:10;;;;;;;12.07;1.98;;;9.70;99.90;;;;;;5052815;28;20025;-77
2021/05/17 02:30:37;;;;;;;13.07;1.83;;;9.80;99.90;;;;;;5068412;28;20059;-83
2021/05/17 02:33:04;;;;;;;17.88;2.40;;;9.70;99.90;;;;;;5066339;28;20107;-79
2021/05/17 02:35:29;;;;;;;13.63;1.83;;;9.50;99.90;;;;;;5066911;28;20052;-81
2021/05/17 02:37:55;;;;;;;13.18;2.15;;;9.70;99.90;;;;;;5055709;28;20637;-80
2021/05/17 02:40:22;;;;;;;11.18;2.17;;;9.70;99.90;;;;;;5060648;28;20107;-67
2021/05/17 02:42:49;;;;;;;9.98;2.17;;;9.70;99.90;;;;;;5056211;28;20025;-69
2021/05/17 02:45:18;;;;;;;8.68;1.75;;;9.70;99.90;;;;;;5054182;28;20017;-67
2021/05/17 02:47:44;;;;;;;10.07;2.05;;;9.70;99.90;;;;;;5059999;28;20029;-66
2021/05/17 02:50:13;;;;;;;14.95;2.42;;;9.70;99.90;;;;;;5064484;28;20008;-81
2021/05/17 02:52:40;;;;;;;12.98;2.65;;;9.70;99.90;;;;;;5058643;28;20024;-67
2021/05/17 02:55:08;;;;;;;11.75;2.38;;;9.70;99.90;;;;;;5067578;28;20023;-69
2021/05/17 02:57:49;;;;;;;12.48;2.17;;;9.70;99.90;;;;;;5059232;28;20485;-75
2021/05/17 03:00:20;;;;;;;13.77;2.58;;;9.70;99.90;;;;;;5062976;28;20044;-81
2021/05/17 03:03:05;;;;;;;19.15;2.65;;;9.70;99.90;;;;;;5070933;28;20527;-73
2021/05/17 03:05:36;;;;;;;13.90;2.25;;;9.80;99.90;;;;;;5067896;28;20028;-71
2021/05/17 03:08:05;;;;;;;10.73;2.05;;;9.70;99.90;;;;;;5059842;28;20020;-75
2021/05/17 03:10:34;;;;;;;14.38;2.10;;;9.80;99.90;;;;;;5065952;28;20439;-77
2021/05/17 03:13:17;;;;;;;13.90;3.10;;;9.90;99.90;;;;;;5058656;28;20568;-80
2021/05/17 03:15:44;;;;;;;13.10;2.50;;;9.90;99.90;;;;;;5044019;28;20025;-75
2021/05/17 03:18:11;;;;;;;14.68;3.33;;;10.00;99.90;;;;;;5051736;28;20059;-71
2021/05/17 03:20:39;;;;;;;13.57;2.30;;;9.90;99.90;;;;;;5061464;28;20020;-70
2021/05/17 03:23:14;;;;;;;12.85;2.60;;;10.00;99.90;;;;;;5062260;28;20852;-70
2021/05/17 03:25:46;;;;;;;18.20;2.70;;;10.20;99.90;;;;;;5053456;28;20033;-69
2021/05/17 03:28:12;;;;;;;24.15;2.80;;;10.10;99.90;;;;;;5054505;28;20112;-71
2021/05/17 03:30:37;;;;;;;18.00;3.13;;;10.10;99.90;;;;;;5062796;28;20107;-71
2021/05/17 03:33:04;;;;;;;23.15;2.60;;;10.20;99.90;;;;;;5055967;28;20025;-82
2021/05/17 03:35:29;;;;;;;18.30;2.40;;;10.10;99.90;;;;;;5066122;28;20796;-82
2021/05/17 03:37:55;;;;;;;16.65;2.78;;;10.10;99.90;;;;;;5059216;28;20021;-81
2021/05/17 03:40:21;;;;;;;20.25;3.13;;;10.20;99.90;;;;;;5065874;28;20040;-75
2021/05/17 03:42:47;;;;;;;16.77;2.63;;;10.20;99.90;;;;;;5059431;28;20478;-77
2021/05/17 03:45:14;;;;;;;21.08;2.92;;;10.20;99.90;;;;;;5064413;28;20027;-82
2021/05/17 03:47:40;;;;;;;21.67;3.40;;;10.20;99.90;;;;;;5050518;28;20029;-77
2021/05/17 03:50:07;;;;;;;17.65;2.72;;;10.20;99.90;;;;;;5054227;28;20505;-80
2021/05/17 03:52:33;;;;;;;14.75;3.10;;;10.20;99.90;;;;;;5056477;28;20028;-79
2021/05/17 03:54:59;;;;;;;17.60;2.80;;;10.20;99.90;;;;;;5056574;28;20621;-82
2021/05/17 03:57:25;;;;;;;22.30;2.78;;;10.10;99.90;;;;;;5063758;28;20032;-80
2021/05/17 03:59:51;;;;;;;20.52;2.55;;;10.20;99.90;;;;;;5061545;28;20454;-80
2021/05/17 04:02:19;;;;;;;20.13;2.85;;;10.20;99.90;;;;;;5052425;28;20099;-82
2021/05/17 04:07:50;;;;;;;16.92;2.58;;;10.20;99.90;;;;;;5067120;28;20101;-73
2021/05/17 04:15:44;;;;;;;23.45;3.78;;;10.30;99.90;;;;;;5066779;28;20032;-71
2021/05/17 04:18:11;;;;;;;19.30;3.10;;;10.30;99.90;;;;;;5068724;28;20028;-73
2021/05/17 04:20:37;;;;;;;20.95;3.00;;;10.30;99.90;;;;;;5063550;28;20025;-68
2021/05/17 04:23:03;;;;;;;18.33;2.92;;;10.30;99.90;;;;;;5054951;28;20089;-77
2021/05/17 04:25:29;;;;;;;14.27;2.67;;;10.30;99.90;;;;;;5063406;28;20524;-78
2021/05/17 04:27:55;;;;;;;16.40;2.50;;;10.20;99.90;;;;;;5063801;28;20021;-81
2021/05/17 04:30:21;;;;;;;17.15;2.63;;;10.20;99.90;;;;;;5066201;28;20066;-82
2021/05/17 04:32:46;;;;;;;20.05;3.97;;;10.20;99.90;;;;;;5069230;28;20036;-79
2021/05/17 04:35:16;;;;;;;20.02;3.22;;;10.30;99.90;;;;;;5058439;28;20044;-67
2021/05/17 04:37:41;;;;;;;14.13;2.55;;;10.40;99.90;;;;;;5064326;28;20032;-78
2021/05/17 04:40:09;;;;;;;15.70;2.10;;;10.50;99.90;;;;;;5068870;28;20536;-74
2021/05/17 04:42:34;;;;;;;18.40;2.85;;;10.50;99.90;;;;;;5070405;28;20032;-78
2021/05/17 04:45:00;;;;;;;8.88;2.67;;;10.50;99.90;;;;;;5065090;28;20044;-80
2021/05/17 04:47:26;;;;;;;15.18;2.97;;;10.50;99.90;;;;;;5065317;28;20021;-82
2021/05/17 04:49:52;;;;;;;17.52;2.90;;;10.60;99.90;;;;;;5064097;28;20036;-71
2021/05/17 04:52:18;;;;;;;13.93;2.90;;;10.60;99.90;;;;;;5053253;28;20025;-69
2021/05/17 04:54:44;;;;;;;14.48;2.75;;;10.60;99.90;;;;;;5056849;28;20453;-68
2021/05/17 04:57:10;;;;;;;23.00;2.97;;;10.60;99.90;;;;;;5069759;28;20470;-71
2021/05/17 04:59:37;;;;;;;15.38;2.72;;;10.70;99.90;;;;;;5063243;28;20097;-65
2021/05/17 05:02:06;;;;;;;19.95;3.72;;;10.70;99.90;;;;;;5066935;28;20154;-67
2021/05/17 05:04:32;;;;;;;17.23;2.92;;;10.60;99.90;;;;;;5073609;28;20033;-74
2021/05/17 05:06:57;;;;;;;25.52;3.47;;;10.60;99.90;;;;;;5063233;28;20054;-67
2021/05/17 05:09:24;;;;;;;17.83;3.25;;;10.60;99.90;;;;;;5066460;28;20127;-76
2021/05/17 05:11:50;;;;;;;20.88;3.00;;;10.70;99.90;;;;;;5068245;28;20412;-77
2021/05/17 05:14:16;;;;;;;14.48;2.83;;;10.70;99.90;;;;;;5068412;28;20043;-80
2021/05/17 05:16:41;;;;;;;17.35;3.20;;;10.50;99.90;;;;;;5058486;28;20029;-64
2021/05/17 05:19:07;;;;;;;16.85;4.07;;;10.50;99.90;;;;;;5061033;28;20067;-65
2021/05/17 05:21:33;;;;;;;21.27;3.38;;;10.60;99.90;;;;;;5063762;28;20028;-81
2021/05/17 05:23:59;;;;;;;18.45;3.67;;;10.50;99.90;;;;;;5072505;28;20459;-81
2021/05/17 05:29:10;;;;;;;15.98;4.32;;;10.60;99.90;;;;;;5057396;28;20053;-81
2021/05/17 05:34:22;;;;;;;21.83;4.32;;;10.60;99.90;;;;;;5054699;28;19954;-82
2021/05/17 05:36:48;;;;;;;17.95;4.35;;;10.60;99.90;;;;;;5053388;28;20049;-68
2021/05/17 05:39:14;;;;;;;19.02;4.50;;;10.80;99.90;;;;;;5063193;28;20044;-65
2021/05/17 05:41:39;;;;;;;24.20;5.88;;;11.00;99.90;;;;;;5056782;28;20063;-65
2021/05/17 05:44:06;;;;;;;25.05;5.72;;;10.80;99.90;;;;;;5055117;28;20052;-70
2021/05/17 05:46:31;;;;;;;19.88;4.80;;;11.00;99.90;;;;;;5062875;28;20550;-74
2021/05/17 05:48:58;;;;;;;20.10;4.43;;;11.00;99.90;;;;;;5061288;28;20031;-69
2021/05/17 05:51:28;;;;;;;13.55;2.63;;;11.00;99.90;;;;;;5061598;28;20570;-82
2021/05/17 05:53:54;;;;;;;21.15;3.15;;;11.00;99.90;;;;;;5063576;28;20036;-77
2021/05/17 05:56:19;;;;;;;17.70;3.28;;;11.10;99.90;;;;;;5066898;28;20029;-76
2021/05/17 05:58:47;;;;;;;18.15;3.65;;;11.10;99.90;;;;;;5071443;28;20033;-74
2021/05/17 06:01:12;;;;;;;23.02;3.47;;;10.90;99.90;;;;;;5066305;28;20115;-74
2021/05/17 06:03:39;;;;;;;13.68;2.85;;;10.90;99.90;;;;;;5067334;28;20104;-77
2021/05/17 06:06:05;;;;;;;10.38;2.60;;;11.20;99.90;;;;;;5067315;28;20032;-70
2021/05/17 06:08:33;;;;;;;16.08;2.90;;;11.10;99.90;;;;;;5064976;28;20753;-78
2021/05/17 06:11:00;;;;;;;15.40;3.08;;;11.10;99.90;;;;;;5066655;28;20023;-78
2021/05/17 06:13:27;;;;;;;22.25;3.33;;;11.20;99.90;;;;;;5065279;28;20043;-76
2021/05/17 06:15:52;;;;;;;14.13;2.63;;;11.10;99.90;;;;;;5044968;28;20453;-76
2021/05/17 06:18:18;;;;;;;17.88;3.30;;;11.30;99.90;;;;;;5064954;28;20108;-77
2021/05/17 06:20:44;;;;;;;11.55;3.38;;;11.40;99.90;;;;;;5062509;28;20477;-76
2021/05/17 06:23:14;;;;;;;20.40;2.85;;;11.60;99.90;;;;;;5064480;28;20028;-64
2021/05/17 06:25:40;;;;;;;20.63;3.42;;;11.60;99.90;;;;;;5063035;28;20029;-66
2021/05/17 06:28:07;;;;;;;17.75;3.28;;;11.70;99.90;;;;;;5061017;28;20039;-68
2021/05/17 06:30:42;;;;;;;17.38;3.05;;;11.90;99.90;;;;;;5068885;28;20409;-74
2021/05/17 06:33:09;;;;;;;19.02;2.90;;;11.90;99.90;;;;;;5066305;28;20027;-71
2021/05/17 06:35:43;;;;;;;19.50;3.03;;;11.90;99.90;;;;;;5049234;28;20497;-73
2021/05/17 06:38:09;;;;;;;14.10;2.95;;;12.00;99.90;;;;;;5057766;28;20032;-75
2021/05/17 06:40:35;;;;;;;16.98;4.07;;;12.00;99.90;;;;;;5057762;28;20037;-72
2021/05/17 06:43:00;;;;;;;15.32;3.15;;;12.00;99.90;;;;;;5064392;28;20028;-63
2021/05/17 06:45:26;;;;;;;22.17;4.20;;;12.20;99.90;;;;;;5055249;28;20057;-63
2021/05/17 06:47:53;;;;;;;20.45;3.58;;;12.10;99.90;;;;;;5064277;28;20020;-63
2021/05/17 06:50:19;;;;;;;19.05;3.35;;;12.20;99.90;;;;;;5056721;28;20177;-64
2021/05/17 06:52:45;;;;;;;22.83;3.63;;;12.30;99.90;;;;;;5059495;28;20009;-63
2021/05/17 06:55:20;;;;;;;25.33;4.20;;;12.20;99.90;;;;;;5045705;28;20033;-63
2021/05/17 07:02:52;;;;;;;27.15;4.13;;;12.30;99.90;;;;;;5058145;28;20036;-73
2021/05/17 07:05:21;;;;;;;23.05;2.95;;;12.50;99.90;;;;;;5059516;28;20039;-63
2021/05/17 07:11:32;;;;;;;22.92;3.83;;;12.50;99.90;;;;;;5063194;28;20074;-62
2021/05/17 07:13:24;;;;;;;20.83;3.65;;;12.70;99.90;;;;;;5059223;28;20546;-64
2021/05/17 07:15:50;;;;;;;22.27;4.10;;;12.80;99.90;;;;;;5061590;28;20044;-63
2021/05/17 07:18:16;;;;;;;22.42;3.88;;;12.70;99.90;;;;;;5052117;28;20055;-64
2021/05/17 07:25:57;;;;;;;21.67;3.97;;;12.90;99.90;;;;;;5060142;28;20607;-68
2021/05/17 07:28:23;;;;;;;25.45;3.60;;;12.70;99.90;;;;;;5060544;28;20029;-64
2021/05/17 07:30:49;;;;;;;22.27;3.42;;;12.70;99.90;;;;;;5060903;28;20024;-63
2021/05/17 07:33:16;;;;;;;17.70;3.28;;;12.80;99.90;;;;;;5060121;28;20032;-63
2021/05/17 07:35:42;;;;;;;20.10;3.20;;;12.80;99.90;;;;;;5053420;28;20049;-64
2021/05/17 07:38:08;;;;;;;19.98;3.65;;;12.90;99.90;;;;;;5061334;28;20029;-62
2021/05/17 07:40:34;;;;;;;19.92;3.00;;;13.00;99.90;;;;;;5057117;28;20102;-63
2021/05/17 07:43:00;;;;;;;17.95;3.50;;;12.90;99.90;;;;;;5063365;28;20024;-64
2021/05/17 07:45:26;;;;;;;19.42;3.25;;;13.10;99.90;;;;;;5058640;28;20047;-66
2021/05/17 07:47:53;;;;;;;18.27;3.10;;;13.30;99.90;;;;;;5062316;28;20106;-65
2021/05/17 07:50:19;;;;;;;23.00;3.38;;;13.60;99.90;;;;;;5054365;28;20035;-69
2021/05/17 07:52:45;;;;;;;14.45;3.25;;;13.90;99.90;;;;;;5061605;28;20024;-64
2021/05/17 07:55:12;;;;;;;24.17;4.85;;;14.00;99.90;;;;;;5052804;28;20052;-64
2021/05/17 07:57:38;;;;;;;21.77;3.40;;;14.00;99.90;;;;;;5060558;28;20086;-63
2021/05/17 08:00:07;;;;;;;18.95;3.83;;;14.20;99.90;;;;;;5053395;28;20037;-64
2021/05/17 08:02:33;;;;;;;24.42;4.47;;;13.90;99.90;;;;;;5056343;28;20031;-64
2021/05/17 08:04:59;;;;;;;20.05;3.55;;;14.20;99.90;;;;;;5061376;28;20016;-64
2021/05/17 08:07:25;;;;;;;18.67;3.65;;;14.40;99.90;;;;;;5059366;28;20500;-64
2021/05/17 08:09:52;;;;;;;24.63;3.80;;;14.20;99.90;;;;;;5065578;28;20501;-64
2021/05/17 08:12:18;;;;;;;18.52;3.65;;;14.20;99.90;;;;;;5060390;28;20017;-65
2021/05/17 08:14:44;;;;;;;21.85;3.25;;;14.40;99.90;;;;;;5084609;28;20008;-64
2021/05/17 08:17:10;;;;;;;20.63;3.67;;;14.30;99.90;;;;;;5067263;28;20118;-64
2021/05/17 08:19:35;;;;;;;21.83;3.40;;;14.50;99.90;;;;;;5076511;28;20029;-64
2021/05/17 08:22:02;;;;;;;15.02;2.65;;;14.40;99.90;;;;;;5064676;28;20085;-65
2021/05/17 08:24:28;;;;;;;19.92;3.53;;;14.20;99.90;;;;;;5066070;28;20103;-66
2021/05/17 08:26:54;;;;;;;22.17;3.58;;;14.30;99.90;;;;;;5055966;28;20147;-65
2021/05/17 08:29:21;;;;;;;18.30;3.08;;;14.30;99.90;;;;;;5064872;28;20090;-66
2021/05/17 08:31:49;;;;;;;15.48;2.83;;;14.50;99.90;;;;;;5064056;28;20021;-64
2021/05/17 08:34:15;;;;;;;23.58;3.75;;;14.50;99.90;;;;;;5060439;28;20059;-64
2021/05/17 08:36:40;;;;;;;18.55;3.55;;;14.40;99.90;;;;;;5058988;28;20049;-64
2021/05/17 08:39:08;;;;;;;14.68;4.70;;;14.50;99.90;;;;;;5057858;28;20039;-64
2021/05/17 08:41:34;;;;;;;18.27;3.45;;;14.20;99.90;;;;;;5056429;28;20097;-65
2021/05/17 08:44:01;;;;;;;15.88;3.05;;;14.40;99.90;;;;;;5061037;28;20462;-69
2021/05/17 08:46:28;;;;;;;19.50;3.25;;;14.70;99.90;;;;;;5063419;28;20033;-65
2021/05/17 08:48:54;;;;;;;20.35;3.40;;;14.70;99.90;;;;;;5069130;28;20021;-72
2021/05/17 08:51:26;;;;;;;24.60;3.35;;;14.80;99.90;;;;;;5054720;28;20028;-67
2021/05/17 08:53:53;;;;;;;20.05;3.55;;;14.90;99.90;;;;;;5055504;28;20701;-64
2021/05/17 08:56:20;;;;;;;18.60;3.83;;;15.10;99.90;;;;;;5058782;28;20021;-63
2021/05/17 08:58:48;;;;;;;17.77;3.85;;;15.50;99.90;;;;;;5068748;28;20040;-65
2021/05/17 09:01:14;;;;;;;19.77;3.03;;;15.40;99.90;;;;;;5058677;28;20020;-64
2021/05/17 09:03:39;;;;;;;10.85;2.50;;;15.60;99.90;;;;;;5047020;28;20029;-64
2021/05/17 09:06:07;;;;;;;18.63;3.33;;;15.60;99.90;;;;;;5055481;28;20038;-68
2021/05/17 09:08:43;;;;;;;13.43;2.72;;;15.70;99.90;;;;;;5052991;28;20025;-64
2021/05/17 09:11:09;;;;;;;14.07;2.55;;;15.90;99.90;;;;;;5055379;28;20025;-62
2021/05/17 09:13:35;;;;;;;15.48;2.75;;;16.10;99.90;;;;;;5057292;28;20620;-64
2021/05/17 09:16:04;;;;;;;14.77;3.08;;;16.30;99.90;;;;;;5058702;28;20025;-61
2021/05/17 09:18:30;;;;;;;17.05;2.90;;;16.10;99.90;;;;;;5054760;28;20020;-61
2021/05/17 09:21:05;;;;;;;16.00;2.63;;;15.90;99.90;;;;;;5062328;28;20024;-68
2021/05/17 09:23:36;;;;;;;16.38;3.10;;;15.90;99.90;;;;;;5067339;28;20120;-65
2021/05/17 09:26:22;;;;;;;13.80;2.85;;;16.00;99.90;;;;;;5062833;28;20028;-61
2021/05/17 09:28:53;;;;;;;11.23;2.42;;;16.40;99.90;;;;;;5070113;28;20099;-63
2021/05/17 09:31:21;;;;;;;15.18;3.30;;;16.30;99.90;;;;;;5059465;28;20044;-62
2021/05/17 09:34:01;;;;;;;15.63;3.38;;;16.30;99.90;;;;;;5065463;28;20021;-67
2021/05/17 09:36:37;;;;;;;17.13;2.88;;;15.90;99.90;;;;;;5063812;28;20134;-61
2021/05/17 09:39:10;;;;;;;13.60;2.72;;;16.20;99.90;;;;;;5069703;28;20040;-62
2021/05/17 09:41:41;;;;;;;13.27;2.80;;;16.40;99.90;;;;;;5060147;28;20059;-61
2021/05/17 09:44:08;;;;;;;13.98;2.85;;;15.70;99.90;;;;;;5065886;28;20025;-61
2021/05/17 09:47:04;;;;;;;16.60;2.53;;;15.80;99.90;;;;;;5061517;28;20055;-61
2021/05/17 09:49:52;;;;;;;11.05;2.20;;;16.50;99.90;;;;;;5062242;28;20024;-61
2021/05/17 09:52:28;;;;;;;17.98;6.88;;;16.50;99.90;;;;;;5055686;28;20025;-61
2021/05/17 09:55:04;;;;;;;10.60;2.40;;;16.40;99.90;;;;;;5054306;28;20029;-61
2021/05/17 09:57:34;;;;;;;13.68;2.63;;;16.20;99.90;;;;;;5053372;28;20021;-61
2021/05/17 10:00:08;;;;;;;10.32;2.75;;;15.90;99.90;;;;;;5055597;28;20037;-62
2021/05/17 10:02:39;;;;;;;12.25;2.60;;;15.90;99.90;;;;;;5061388;28;20028;-61
2021/05/17 10:05:11;;;;;;;17.30;3.30;;;15.50;99.90;;;;;;5067268;28;20037;-61
2021/05/17 10:07:36;;;;;;;17.63;3.53;;;15.60;99.90;;;;;;5057683;28;20421;-60
2021/05/17 10:10:05;;;;;;;15.50;4.25;;;16.30;99.90;;;;;;5058286;28;20127;-61
2021/05/17 10:12:30;;;;;;;20.38;3.17;;;16.90;99.90;;;;;;5068261;28;20032;-61
2021/05/17 10:14:56;;;;;;;14.55;2.67;;;16.80;99.90;;;;;;5066797;28;20055;-64
2021/05/17 10:17:22;;;;;;;11.20;2.92;;;16.90;99.90;;;;;;5056339;28;20418;-63
2021/05/17 10:19:49;;;;;;;12.95;2.75;;;17.10;99.90;;;;;;5070296;28;20036;-64
2021/05/17 10:22:15;;;;;;;8.93;2.47;;;17.10;99.90;;;;;;5061480;28;20033;-63
2021/05/17 10:24:41;;;;;;;9.82;2.22;;;17.10;99.90;;;;;;5072949;28;20103;-63
2021/05/17 10:27:07;;;;;;;12.18;2.78;;;17.30;99.90;;;;;;5068004;28;20098;-63
2021/05/17 10:29:36;;;;;;;8.57;2.13;;;17.40;99.90;;;;;;5071108;28;20064;-63
2021/05/17 10:32:04;;;;;;;7.30;2.22;;;17.60;99.90;;;;;;5071439;28;20048;-62
2021/05/17 10:34:30;;;;;;;12.27;2.30;;;16.90;99.90;;;;;;5076075;28;20510;-63
2021/05/17 10:37:02;;;;;;;10.55;2.60;;;16.70;99.90;;;;;;5055038;28;20040;-63
2021/05/17 10:39:32;;;;;;;13.07;2.28;;;16.70;99.90;;;;;;5077847;28;20081;-63
2021/05/17 10:48:16;;;;;;;8.30;2.45;;;17.50;99.90;;;;;;5050332;28;20032;-63
2021/05/17 10:50:45;;;;;;;8.00;2.00;;;17.90;99.90;;;;;;5056320;28;20028;-63
2021/05/17 10:53:58;;;;;;;7.95;2.60;;;17.80;99.90;;;;;;5071278;28;20105;-63
2021/05/17 10:56:47;;;;;;;11.77;2.67;;;17.80;99.90;;;;;;5036752;28;20041;-63
2021/05/17 11:02:08;;;;;;;10.65;2.50;;;17.70;99.90;;;;;;5064213;28;20031;-64
2021/05/17 11:04:35;;;;;;;13.38;2.85;;;17.60;99.90;;;;;;5070857;28;20020;-64
2021/05/17 11:07:10;;;;;;;13.10;2.58;;;17.30;99.90;;;;;;5070257;28;20031;-64
2021/05/17 11:09:40;;;;;;;16.40;2.75;;;17.60;99.90;;;;;;5069221;28;20031;-64
2021/05/17 11:12:24;;;;;;;12.98;2.78;;;18.10;99.90;;;;;;5063533;28;20033;-63
2021/05/17 11:15:10;;;;;;;11.77;2.58;;;18.10;99.90;;;;;;5056851;28;20025;-64
2021/05/17 11:17:51;;;;;;;9.18;2.42;;;18.30;99.90;;;;;;5055196;28;20732;-63
2021/05/17 11:20:43;;;;;;;16.38;2.67;;;18.00;99.90;;;;;;5050491;28;20540;-64
2021/05/17 11:23:13;;;;;;;12.57;2.40;;;18.10;99.90;;;;;;5050636;28;20407;-63
2021/05/17 11:25:47;;;;;;;14.70;2.75;;;18.30;99.90;;;;;;5059815;28;20122;-63
2021/05/17 11:28:13;;;;;;;9.85;2.08;;;17.70;99.90;;;;;;5076004;28;20093;-63
2021/05/17 11:30:41;;;;;;;7.93;2.22;;;18.30;99.90;;;;;;5074488;28;20028;-63
2021/05/17 11:33:19;;;;;;;7.80;1.70;;;19.20;99.90;;;;;;5065465;28;20587;-63
2021/05/17 11:36:09;;;;;;;14.60;2.17;;;19.20;99.90;;;;;;5065269;28;20054;-63
2021/05/17 11:38:35;;;;;;;8.18;2.25;;;18.60;99.90;;;;;;5069377;28;20039;-64
2021/05/17 11:41:17;;;;;;;9.70;2.55;;;19.20;99.90;;;;;;5053543;28;20040;-63
2021/05/17 11:43:43;;;;;;;7.55;2.80;;;19.10;99.90;;;;;;5067702;28;20020;-63
2021/05/17 11:46:16;;;;;;;9.35;2.03;;;19.70;99.90;;;;;;5060603;28;20028;-61
2021/05/17 11:48:43;;;;;;;5.22;1.95;;;19.80;99.90;;;;;;5059725;28;20130;-64
2021/05/17 11:51:09;;;;;;;14.32;2.30;;;19.30;99.90;;;;;;5062685;28;20032;-66
2021/05/17 11:53:44;;;;;;;9.48;2.45;;;19.40;99.90;;;;;;5060993;28;20028;-64
2021/05/17 11:56:10;;;;;;;13.98;2.40;;;19.60;99.90;;;;;;5064387;28;20021;-64
2021/05/17 11:58:36;;;;;;;10.70;2.38;;;20.00;99.90;;;;;;5067451;28;20035;-64
2021/05/17 12:01:19;;;;;;;11.65;2.40;;;19.70;99.90;;;;;;5046589;28;20047;-68
2021/05/17 12:03:45;;;;;;;7.35;2.20;;;19.60;99.90;;;;;;5068223;28;20031;-65
2021/05/17 12:06:10;;;;;;;7.55;2.13;;;19.40;99.90;;;;;;5061970;28;20120;-66
2021/05/17 12:08:39;;;;;;;7.03;2.13;;;20.20;99.90;;;;;;5063303;28;20036;-65
2021/05/17 12:11:14;;;;;;;12.80;2.20;;;20.10;99.90;;;;;;5064740;28;20111;-63
2021/05/17 12:13:46;;;;;;;8.13;1.88;;;20.40;99.90;;;;;;5062327;28;20044;-65
2021/05/17 12:16:25;;;;;;;9.52;1.98;;;20.30;99.90;;;;;;5057467;28;20112;-64
2021/05/17 12:19:01;;;;;;;6.03;1.88;;;20.40;99.90;;;;;;5061929;28;20031;-65
2021/05/17 12:21:37;;;;;;;8.65;1.77;;;19.60;99.90;;;;;;5060157;28;20041;-72
2021/05/17 12:24:07;;;;;;;10.60;1.88;;;19.70;99.90;;;;;;5063707;28;20239;-65
2021/05/17 12:26:57;;;;;;;4.65;1.80;;;20.40;99.90;;;;;;5058055;28;20447;-65
2021/05/17 12:29:23;;;;;;;6.25;1.30;;;20.50;99.90;;;;;;5059196;28;20060;-67
2021/05/17 12:31:48;;;;;;;3.95;1.50;;;20.90;99.90;;;;;;5061550;28;20048;-64
2021/05/17 12:34:15;;;;;;;4.72;1.45;;;20.60;99.90;;;;;;5063348;28;20537;-65
2021/05/17 12:36:43;;;;;;;7.50;1.50;;;20.60;99.90;;;;;;5059772;28;20051;-65
2021/05/17 12:39:17;;;;;;;7.53;1.85;;;20.80;99.90;;;;;;5063133;28;20078;-65
2021/05/17 12:41:44;;;;;;;3.80;1.20;;;20.80;99.90;;;;;;5060938;28;20029;-65
2021/05/17 12:44:28;;;;;;;6.72;1.73;;;20.50;99.90;;;;;;5063242;28;20107;-65
2021/05/17 12:47:06;;;;;;;8.88;1.95;;;21.00;99.90;;;;;;5046920;28;20017;-65
2021/05/17 12:49:49;;;;;;;4.50;1.73;;;20.60;99.90;;;;;;5063905;28;20024;-65
2021/05/17 12:52:26;;;;;;;7.13;1.90;;;20.60;99.90;;;;;;5063407;28;20039;-65
2021/05/17 12:55:27;;;;;;;12.32;1.98;;;20.60;99.90;;;;;;5044274;28;20062;-65
2021/05/17 12:57:56;;;;;;;3.88;1.75;;;20.90;99.90;;;;;;4958138;28;20067;-66
2021/05/17 13:01:11;;;;;;;5.93;1.80;;;20.40;99.30;;;;;;5045040;28;20060;-64
2021/05/17 13:03:43;;;;;;;6.55;1.70;;;21.10;99.90;;;;;;4967396;28;20503;-63
2021/05/17 13:06:10;;;;;;;7.90;1.98;;;21.00;99.90;;;;;;4966160;28;20030;-63
2021/05/17 13:08:36;;;;;;;6.40;1.63;;;21.90;99.90;;;;;;5024441;28;20040;-65
2021/05/17 13:11:07;;;;;;;8.10;2.25;;;20.80;99.90;;;;;;5056897;28;20032;-64
2021/05/17 13:14:02;;;;;;;13.95;2.55;;;19.80;99.90;;;;;;5062843;28;20557;-64
2021/05/17 13:16:41;;;;;;;10.65;2.33;;;19.60;99.90;;;;;;5058714;28;20041;-65
2021/05/17 13:30:37;;;;;;;8.32;1.98;;;18.80;99.90;;;;;;5059046;28;20033;-65
2021/05/17 13:33:03;;;;;;;8.40;2.42;;;19.90;99.90;;;;;;5057278;28;20028;-64
2021/05/17 13:35:28;;;;;;;8.77;2.38;;;20.30;99.90;;;;;;5060938;28;20520;-64
2021/05/17 13:37:54;;;;;;;8.15;2.25;;;20.60;99.90;;;;;;5058994;28;20021;-63